Time;durP1;ratioP1;P1;durP2;ratioP2;P2;SDS_P1;SDS_P2;PMS_P1;PMS_P2;Temp;Humidity;BMP_temperature;BMP_pressure;BME280_temperature;BME280_humidity;BME280_pressure;Samples;Min_cycle;Max_cycle;Signal;HPM_P1;HPM_P2
2023/09/04 00:02:21;;;;;;;;;;;;;;;;;;5053481;28;5097;-57
2023/09/04 00:04:46;;;;;;;;;;;;;;;;;;5083023;28;1914;-57
2023/09/04 00:07:11;;;;;;;;;;;;;;;;;;5056485;28;4456;-57
2023/09/04 00:09:37;;;;;;;;;;;;;;;;;;5051459;28;5010;-58
2023/09/04 00:12:03;;;;;;;;;;;;;;;;;;5068193;28;4623;-58
2023/09/04 00:14:28;;;;;;;;;;;;;;;;;;5063621;28;5238;-58
2023/09/04 00:16:53;;;;;;;;;;;;;;;;;;5069816;28;1158;-58
2023/09/04 00:19:18;;;;;;;;;;;;;;;;;;5068497;28;4965;-58
2023/09/04 00:21:44;;;;;;;;;;;;;;;;;;5068362;28;5106;-57
2023/09/04 00:24:09;;;;;;;;;;;;;;;;;;5058176;28;5043;-58
2023/09/04 00:26:35;;;;;;;;;;;;;;;;;;5066467;28;4634;-57
2023/09/04 00:29:00;;;;;;;;;;;;;;;;;;5066829;28;1660;-57
2023/09/04 00:31:25;;;;;;;;;;;;;;;;;;5064084;28;4953;-57
2023/09/04 00:33:51;;;;;;;;;;;;;;;;;;5061597;28;4605;-57
2023/09/04 00:36:16;;;;;;;;;;;;;;;;;;5080611;28;5360;-56
2023/09/04 00:38:41;;;;;;;;;;;;;;;;;;5067761;28;5017;-57
2023/09/04 00:41:06;;;;;;;;;;;;;;;;;;5068040;28;1301;-57
2023/09/04 00:43:35;;;;;;;;;;;;;;;;;;5067667;28;4763;-57
2023/09/04 00:46:01;;;;;;;;;;;;;;;;;;5063868;28;5644;-57
2023/09/04 00:48:26;;;;;;;;;;;;;;;;;;5080283;28;5057;-57
2023/09/04 00:50:51;;;;;;;;;;;;;;;;;;5066140;28;4989;-57
2023/09/04 00:53:17;;;;;;;;;;;;;;;;;;5066523;28;5036;-57
2023/09/04 00:55:42;;;;;;;;;;;;;;;;;;5063250;28;1080;-57
2023/09/04 00:58:07;;;;;;;;;;;;;;;;;;5085171;28;5095;-57
2023/09/04 01:00:32;;;;;;;;;;;;;;;;;;5082041;28;4582;-57
2023/09/04 01:02:59;;;;;;;;;;;;;;;;;;5058828;28;5266;-56
2023/09/04 01:05:27;;;;;;;;;;;;;;;;;;5069473;28;5159;-57
2023/09/04 01:07:53;;;;;;;;;;;;;;;;;;5078952;28;1354;-57
2023/09/04 01:10:18;;;;;;;;;;;;;;;;;;5057382;28;5080;-57
2023/09/04 01:13:04;;;;;;;;;;;;;;;;;;5059221;28;4406;-57
2023/09/04 01:15:30;;;;;;;;;;;;;;;;;;5074876;28;5039;-57
2023/09/04 01:17:55;;;;;;;;;;;;;;;;;;5078790;28;4407;-57
2023/09/04 01:20:20;;;;;;;;;;;;;;;;;;5055143;28;5081;-57
2023/09/04 01:22:45;;;;;;;;;;;;;;;;;;5053122;28;1133;-57
2023/09/04 01:25:10;;;;;;;;;;;;;;;;;;5055499;28;4922;-57
2023/09/04 01:27:39;;;;;;;;;;;;;;;;;;5088775;28;5310;-57
2023/09/04 01:30:08;;;;;;;;;;;;;;;;;;5092521;28;5051;-57
2023/09/04 01:32:38;;;;;;;;;;;;;;;;;;5076603;28;5166;-57
2023/09/04 01:35:03;;;;;;;;;;;;;;;;;;5092195;28;1709;-57
2023/09/04 01:37:29;;;;;;;;;;;;;;;;;;5086099;28;5111;-57
2023/09/04 01:39:54;;;;;;;;;;;;;;;;;;5076696;28;5066;-57
2023/09/04 01:42:19;;;;;;;;;;;;;;;;;;5080069;28;4812;-57
2023/09/04 01:44:45;;;;;;;;;;;;;;;;;;5080982;28;4991;-57
2023/09/04 01:47:10;;;;;;;;;;;;;;;;;;5078948;28;1112;-57
2023/09/04 01:49:35;;;;;;;;;;;;;;;;;;5079572;28;4946;-57
2023/09/04 01:52:00;;;;;;;;;;;;;;;;;;5071047;28;5054;-56
2023/09/04 01:54:26;;;;;;;;;;;;;;;;;;5080276;28;5214;-56
2023/09/04 01:56:51;;;;;;;;;;;;;;;;;;5071942;28;5817;-56
2023/09/04 01:59:17;;;;;;;;;;;;;;;;;;5094637;28;4488;-57
2023/09/04 02:01:42;;;;;;;;;;;;;;;;;;5077436;28;1248;-57
2023/09/04 02:04:07;;;;;;;;;;;;;;;;;;5075197;28;5029;-57
2023/09/04 02:06:32;;;;;;;;;;;;;;;;;;5069436;28;5095;-56
2023/09/04 02:08:58;;;;;;;;;;;;;;;;;;5075362;28;5015;-57
2023/09/04 02:11:23;;;;;;;;;;;;;;;;;;5075666;28;5069;-57
2023/09/04 02:13:49;;;;;;;;;;;;;;;;;;5073936;28;1200;-57
2023/09/04 02:16:14;;;;;;;;;;;;;;;;;;5072380;28;4915;-60
2023/09/04 02:18:39;;;;;;;;;;;;;;;;;;5071766;28;5045;-57
2023/09/04 02:21:05;;;;;;;;;;;;;;;;;;5075825;28;5186;-57
2023/09/04 02:23:30;;;;;;;;;;;;;;;;;;5076459;28;4428;-57
2023/09/04 02:25:55;;;;;;;;;;;;;;;;;;5072106;28;2215;-56
2023/09/04 02:28:21;;;;;;;;;;;;;;;;;;5081511;28;5045;-58
2023/09/04 02:30:46;;;;;;;;;;;;;;;;;;5079076;28;4933;-57
2023/09/04 02:33:11;;;;;;;;;;;;;;;;;;5075375;28;5200;-57
2023/09/04 02:35:36;;;;;;;;;;;;;;;;;;5070336;28;5156;-57
2023/09/04 02:38:02;;;;;;;;;;;;;;;;;;5079985;28;1265;-58
2023/09/04 02:40:27;;;;;;;;;;;;;;;;;;5075638;28;4947;-57
2023/09/04 02:42:52;;;;;;;;;;;;;;;;;;5079849;28;5142;-58
2023/09/04 02:45:18;;;;;;;;;;;;;;;;;;5053747;28;4524;-57
2023/09/04 02:47:43;;;;;;;;;;;;;;;;;;5070585;28;4650;-57
2023/09/04 02:50:09;;;;;;;;;;;;;;;;;;5077591;28;1313;-57
2023/09/04 02:52:34;;;;;;;;;;;;;;;;;;5076448;28;4558;-57
2023/09/04 02:54:59;;;;;;;;;;;;;;;;;;5078720;28;5151;-58
2023/09/04 02:57:25;;;;;;;;;;;;;;;;;;5081173;28;4630;-57
2023/09/04 02:59:50;;;;;;;;;;;;;;;;;;5088508;28;5193;-57
2023/09/04 03:02:16;;;;;;;;;;;;;;;;;;5099486;28;5070;-57
2023/09/04 03:04:41;;;;;;;;;;;;;;;;;;5093696;28;1506;-58
2023/09/04 03:07:06;;;;;;;;;;;;;;;;;;5092507;28;4894;-58
2023/09/04 03:09:32;;;;;;;;;;;;;;;;;;5090532;28;5058;-58
2023/09/04 03:11:58;;;;;;;;;;;;;;;;;;5092037;28;4793;-58
2023/09/04 03:14:23;;;;;;;;;;;;;;;;;;5110390;27;4988;-58
2023/09/04 03:16:48;;;;;;;;;;;;;;;;;;5090553;28;1153;-58
2023/09/04 03:19:13;;;;;;;;;;;;;;;;;;5095441;28;4616;-58
2023/09/04 03:21:38;;;;;;;;;;;;;;;;;;5091592;28;5079;-58
2023/09/04 03:24:04;;;;;;;;;;;;;;;;;;5094264;28;4417;-58
2023/09/04 03:26:29;;;;;;;;;;;;;;;;;;5088267;28;4991;-58
2023/09/04 03:28:54;;;;;;;;;;;;;;;;;;5089791;28;1665;-58
2023/09/04 03:31:20;;;;;;;;;;;;;;;;;;5100962;28;5008;-57
2023/09/04 03:33:45;;;;;;;;;;;;;;;;;;5087911;28;4444;-58
2023/09/04 03:36:11;;;;;;;;;;;;;;;;;;5096133;28;4880;-58
2023/09/04 03:38:36;;;;;;;;;;;;;;;;;;5095619;28;4850;-58
2023/09/04 03:41:02;;;;;;;;;;;;;;;;;;5098251;28;1224;-58
2023/09/04 03:43:29;;;;;;;;;;;;;;;;;;5079484;28;5169;-58
2023/09/04 03:45:54;;;;;;;;;;;;;;;;;;5095625;28;4995;-59
2023/09/04 03:48:19;;;;;;;;;;;;;;;;;;5085322;28;5133;-58
2023/09/04 03:50:44;;;;;;;;;;;;;;;;;;5096509;28;5182;-58
2023/09/04 03:53:10;;;;;;;;;;;;;;;;;;5095157;28;1171;-58
2023/09/04 03:55:35;;;;;;;;;;;;;;;;;;5087855;28;5274;-57
2023/09/04 03:58:03;;;;;;;;;;;;;;;;;;5091165;28;5110;-58
2023/09/04 04:00:29;;;;;;;;;;;;;;;;;;5071134;28;4993;-58
2023/09/04 04:02:55;;;;;;;;;;;;;;;;;;5097445;28;5017;-57
2023/09/04 04:05:20;;;;;;;;;;;;;;;;;;5086892;28;4436;-58
2023/09/04 04:07:45;;;;;;;;;;;;;;;;;;5094070;28;1241;-58
2023/09/04 04:10:11;;;;;;;;;;;;;;;;;;5094270;28;5002;-58
2023/09/04 04:12:36;;;;;;;;;;;;;;;;;;5084893;28;5346;-58
2023/09/04 04:15:04;;;;;;;;;;;;;;;;;;5094010;28;4427;-58
2023/09/04 04:17:29;;;;;;;;;;;;;;;;;;5091834;28;4547;-57
2023/09/04 04:19:56;;;;;;;;;;;;;;;;;;5113481;27;1123;-58
2023/09/04 04:22:21;;;;;;;;;;;;;;;;;;5075317;28;5018;-58
2023/09/04 04:24:47;;;;;;;;;;;;;;;;;;5080980;28;4962;-58
2023/09/04 04:27:12;;;;;;;;;;;;;;;;;;5106701;27;5560;-58
2023/09/04 04:29:38;;;;;;;;;;;;;;;;;;5081064;28;5084;-58
2023/09/04 04:32:03;;;;;;;;;;;;;;;;;;5089894;28;4833;-58
2023/09/04 04:34:28;;;;;;;;;;;;;;;;;;5097223;28;5001;-57
2023/09/04 04:36:55;;;;;;;;;;;;;;;;;;5093890;28;4620;-57
2023/09/04 04:39:20;;;;;;;;;;;;;;;;;;5095132;28;4834;-57
2023/09/04 04:41:46;;;;;;;;;;;;;;;;;;5099435;28;4460;-58
2023/09/04 04:44:11;;;;;;;;;;;;;;;;;;5065335;28;5227;-57
2023/09/04 04:46:36;;;;;;;;;;;;;;;;;;5091376;28;3326;-57
2023/09/04 04:49:02;;;;;;;;;;;;;;;;;;5097342;28;4986;-57
2023/09/04 04:51:27;;;;;;;;;;;;;;;;;;5092421;28;4994;-57
2023/09/04 04:53:52;;;;;;;;;;;;;;;;;;5090117;28;4988;-58
2023/09/04 04:56:18;;;;;;;;;;;;;;;;;;5094249;28;4993;-57
2023/09/04 04:58:43;;;;;;;;;;;;;;;;;;5092264;28;3381;-57
2023/09/04 05:01:08;;;;;;;;;;;;;;;;;;5090727;28;4834;-58
2023/09/04 05:03:33;;;;;;;;;;;;;;;;;;5092174;28;5052;-58
2023/09/04 05:05:59;;;;;;;;;;;;;;;;;;5096797;28;4438;-58
2023/09/04 05:08:24;;;;;;;;;;;;;;;;;;5098353;28;5019;-58
2023/09/04 05:10:59;;;;;;;;;;;;;;;;;;5092902;28;3321;-59
2023/09/04 05:13:25;;;;;;;;;;;;;;;;;;5075516;28;5410;-57
2023/09/04 05:15:50;;;;;;;;;;;;;;;;;;5090542;28;4818;-59
2023/09/04 05:18:15;;;;;;;;;;;;;;;;;;5086824;28;4894;-60
2023/09/04 05:20:40;;;;;;;;;;;;;;;;;;5079778;28;5093;-57
2023/09/04 05:23:06;;;;;;;;;;;;;;;;;;5084135;28;3440;-58
2023/09/04 05:25:31;;;;;;;;;;;;;;;;;;5085757;28;4929;-57
2023/09/04 05:27:56;;;;;;;;;;;;;;;;;;5090933;28;5124;-57
2023/09/04 05:30:21;;;;;;;;;;;;;;;;;;5096454;28;5136;-57
2023/09/04 05:32:46;;;;;;;;;;;;;;;;;;5074758;28;5149;-57
2023/09/04 05:35:12;;;;;;;;;;;;;;;;;;5074786;28;5041;-56
2023/09/04 05:37:37;;;;;;;;;;;;;;;;;;5094433;28;1140;-57
2023/09/04 05:40:04;;;;;;;;;;;;;;;;;;5099430;28;4962;-57
2023/09/04 05:42:30;;;;;;;;;;;;;;;;;;5092219;28;4593;-57
2023/09/04 05:44:55;;;;;;;;;;;;;;;;;;5092606;28;4455;-57
2023/09/04 05:47:20;;;;;;;;;;;;;;;;;;5095087;28;5024;-57
2023/09/04 05:49:45;;;;;;;;;;;;;;;;;;5093525;28;1301;-57
2023/09/04 05:52:11;;;;;;;;;;;;;;;;;;5103563;28;5147;-57
2023/09/04 05:54:36;;;;;;;;;;;;;;;;;;5094080;28;5107;-57
2023/09/04 05:57:01;;;;;;;;;;;;;;;;;;5107749;28;5178;-57
2023/09/04 05:59:27;;;;;;;;;;;;;;;;;;5102761;28;4425;-57
2023/09/04 06:01:52;;;;;;;;;;;;;;;;;;5095933;28;1104;-57
2023/09/04 06:04:17;;;;;;;;;;;;;;;;;;5098627;28;5031;-58
2023/09/04 06:06:43;;;;;;;;;;;;;;;;;;5107371;27;5298;-58
2023/09/04 06:09:08;;;;;;;;;;;;;;;;;;5097167;28;4760;-57
2023/09/04 06:11:33;;;;;;;;;;;;;;;;;;5100834;28;4946;-58
2023/09/04 06:13:59;;;;;;;;;;;;;;;;;;5078076;28;1297;-57
2023/09/04 06:16:25;;;;;;;;;;;;;;;;;;5092069;28;4796;-57
2023/09/04 06:18:50;;;;;;;;;;;;;;;;;;5092569;28;5075;-57
2023/09/04 06:21:15;;;;;;;;;;;;;;;;;;5094785;28;4982;-57
2023/09/04 06:23:40;;;;;;;;;;;;;;;;;;5089293;28;4600;-57
2023/09/04 06:26:06;;;;;;;;;;;;;;;;;;5099891;28;1913;-58
2023/09/04 06:28:31;;;;;;;;;;;;;;;;;;5090785;28;4749;-57
2023/09/04 06:30:56;;;;;;;;;;;;;;;;;;5098351;28;4437;-57
2023/09/04 06:33:23;;;;;;;;;;;;;;;;;;5093735;28;5157;-57
2023/09/04 06:35:48;;;;;;;;;;;;;;;;;;5098516;28;4957;-57
2023/09/04 06:38:14;;;;;;;;;;;;;;;;;;5092822;28;4993;-57
2023/09/04 06:40:39;;;;;;;;;;;;;;;;;;5093440;28;2156;-57
2023/09/04 06:43:05;;;;;;;;;;;;;;;;;;5092171;28;5005;-57
2023/09/04 06:45:30;;;;;;;;;;;;;;;;;;5094451;28;5447;-58
2023/09/04 06:47:56;;;;;;;;;;;;;;;;;;5094543;28;5031;-58
2023/09/04 06:50:21;;;;;;;;;;;;;;;;;;5096539;28;5041;-57
2023/09/04 06:52:46;;;;;;;;;;;;;;;;;;5096718;28;1257;-57
2023/09/04 06:55:11;;;;;;;;;;;;;;;;;;5106479;28;5030;-57
2023/09/04 06:57:37;;;;;;;;;;;;;;;;;;5102661;28;4705;-57
2023/09/04 07:00:11;;;;;;;;;;;;;;;;;;5087738;28;5043;-57
2023/09/04 07:02:37;;;;;;;;;;;;;;;;;;5095621;28;5007;-57
2023/09/04 07:05:02;;;;;;;;;;;;;;;;;;5091353;28;1901;-58
2023/09/04 07:07:28;;;;;;;;;;;;;;;;;;5098058;28;4911;-58
2023/09/04 07:09:53;;;;;;;;;;;;;;;;;;5092697;28;4527;-58
2023/09/04 07:12:18;;;;;;;;;;;;;;;;;;5081369;28;5037;-57
2023/09/04 07:14:43;;;;;;;;;;;;;;;;;;5098718;28;4449;-57
2023/09/04 07:17:09;;;;;;;;;;;;;;;;;;5101688;28;1335;-57
2023/09/04 07:19:34;;;;;;;;;;;;;;;;;;5100269;28;4549;-57
2023/09/04 07:21:59;;;;;;;;;;;;;;;;;;5081629;28;5094;-57
2023/09/04 07:24:25;;;;;;;;;;;;;;;;;;5094419;28;4659;-57
2023/09/04 07:26:50;;;;;;;;;;;;;;;;;;5096670;28;4990;-57
2023/09/04 07:29:16;;;;;;;;;;;;;;;;;;5094790;28;4861;-56
2023/09/04 07:31:42;;;;;;;;;;;;;;;;;;5083348;28;1637;-64
2023/09/04 07:34:07;;;;;;;;;;;;;;;;;;5053147;28;5067;-64
2023/09/04 07:36:32;;;;;;;;;;;;;;;;;;5088341;28;5112;-59
2023/09/04 07:38:57;;;;;;;;;;;;;;;;;;5087302;28;4988;-61
2023/09/04 07:41:23;;;;;;;;;;;;;;;;;;5091914;28;4810;-61
2023/09/04 07:43:49;;;;;;;;;;;;;;;;;;5085349;28;3245;-61
2023/09/04 07:46:14;;;;;;;;;;;;;;;;;;5095277;28;4933;-62
2023/09/04 07:48:40;;;;;;;;;;;;;;;;;;5094399;28;4465;-62
2023/09/04 07:51:06;;;;;;;;;;;;;;;;;;5091628;28;5091;-63
2023/09/04 07:53:31;;;;;;;;;;;;;;;;;;5094643;28;4655;-63
2023/09/04 07:55:56;;;;;;;;;;;;;;;;;;5084349;28;1399;-63
2023/09/04 07:58:21;;;;;;;;;;;;;;;;;;5063896;28;5087;-63
2023/09/04 08:00:48;;;;;;;;;;;;;;;;;;5067470;28;5036;-62
2023/09/04 08:03:13;;;;;;;;;;;;;;;;;;5065225;28;5162;-64
2023/09/04 08:05:38;;;;;;;;;;;;;;;;;;5045508;28;5134;-62
2023/09/04 08:08:08;;;;;;;;;;;;;;;;;;5063999;28;3295;-62
2023/09/04 08:10:33;;;;;;;;;;;;;;;;;;5061708;28;4994;-63
2023/09/04 08:12:58;;;;;;;;;;;;;;;;;;5058693;28;5292;-65
2023/09/04 08:15:24;;;;;;;;;;;;;;;;;;5063239;28;4982;-64
2023/09/04 08:17:49;;;;;;;;;;;;;;;;;;5066625;28;5244;-64
2023/09/04 08:20:14;;;;;;;;;;;;;;;;;;5067842;28;4663;-64
2023/09/04 08:22:39;;;;;;;;;;;;;;;;;;5066674;28;1376;-64
2023/09/04 08:25:05;;;;;;;;;;;;;;;;;;5069396;28;4601;-65
2023/09/04 08:27:30;;;;;;;;;;;;;;;;;;5066119;28;5117;-65
2023/09/04 08:29:55;;;;;;;;;;;;;;;;;;5068619;28;4889;-65
2023/09/04 08:32:21;;;;;;;;;;;;;;;;;;5067336;28;5007;-65
2023/09/04 08:34:46;;;;;;;;;;;;;;;;;;5060250;28;3165;-61
2023/09/04 08:37:11;;;;;;;;;;;;;;;;;;5068374;28;5158;-61
2023/09/04 08:39:36;;;;;;;;;;;;;;;;;;5066220;28;4541;-64
2023/09/04 08:42:07;;;;;;;;;;;;;;;;;;5059411;28;4502;-63
2023/09/04 08:44:32;;;;;;;;;;;;;;;;;;5046836;28;5067;-60
2023/09/04 08:46:57;;;;;;;;;;;;;;;;;;5053199;28;1910;-60
2023/09/04 08:49:24;;;;;;;;;;;;;;;;;;5009544;28;4624;-63
2023/09/04 08:51:49;;;;;;;;;;;;;;;;;;5045096;28;4968;-61
2023/09/04 08:54:14;;;;;;;;;;;;;;;;;;5043178;28;5021;-61
2023/09/04 08:56:39;;;;;;;;;;;;;;;;;;5050652;28;5148;-61
2023/09/04 08:59:05;;;;;;;;;;;;;;;;;;5075699;28;1319;-61
2023/09/04 09:01:33;;;;;;;;;;;;;;;;;;5070348;28;4632;-62
2023/09/04 09:03:58;;;;;;;;;;;;;;;;;;5079946;28;5487;-61
2023/09/04 09:06:23;;;;;;;;;;;;;;;;;;5089314;28;5023;-62
2023/09/04 09:08:49;;;;;;;;;;;;;;;;;;5082991;28;5821;-62
2023/09/04 09:11:15;;;;;;;;;;;;;;;;;;5086303;28;4469;-61
2023/09/04 09:13:41;;;;;;;;;;;;;;;;;;5083557;28;3201;-59
2023/09/04 09:16:06;;;;;;;;;;;;;;;;;;5088681;28;5080;-62
2023/09/04 09:18:38;;;;;;;;;;;;;;;;;;5086280;28;5030;-63
2023/09/04 09:21:22;;;;;;;;;;;;;;;;;;5085950;28;4956;-61
2023/09/04 09:23:48;;;;;;;;;;;;;;;;;;5070918;28;4571;-64
2023/09/04 09:26:13;;;;;;;;;;;;;;;;;;5084293;28;5060;-66
2023/09/04 09:28:40;;;;;;;;;;;;;;;;;;5091145;28;2311;-65
2023/09/04 09:31:06;;;;;;;;;;;;;;;;;;5085118;28;4821;-65
2023/09/04 09:33:31;;;;;;;;;;;;;;;;;;5087095;28;5478;-63
2023/09/04 09:35:56;;;;;;;;;;;;;;;;;;5073827;28;5108;-58
2023/09/04 09:38:21;;;;;;;;;;;;;;;;;;5084059;28;4899;-67
2023/09/04 09:40:47;;;;;;;;;;;;;;;;;;5082465;28;3315;-66
2023/09/04 09:43:12;;;;;;;;;;;;;;;;;;5091809;28;4890;-65
2023/09/04 09:45:37;;;;;;;;;;;;;;;;;;5076471;28;4472;-68
2023/09/04 09:48:10;;;;;;;;;;;;;;;;;;5077775;28;4989;-68
2023/09/04 09:50:37;;;;;;;;;;;;;;;;;;5079780;28;5090;-68
2023/09/04 09:53:03;;;;;;;;;;;;;;;;;;5079480;28;3389;-68
2023/09/04 09:55:28;;;;;;;;;;;;;;;;;;5083134;28;5222;-70
2023/09/04 09:57:54;;;;;;;;;;;;;;;;;;5064659;28;5099;-69
2023/09/04 10:00:20;;;;;;;;;;;;;;;;;;5062091;28;5209;-69
2023/09/04 10:02:47;;;;;;;;;;;;;;;;;;5060330;28;5194;-75
2023/09/04 10:05:12;;;;;;;;;;;;;;;;;;5058322;28;5126;-70
2023/09/04 10:07:38;;;;;;;;;;;;;;;;;;5063936;28;3240;-71
2023/09/04 10:10:04;;;;;;;;;;;;;;;;;;5057406;28;5428;-69
2023/09/04 10:12:33;;;;;;;;;;;;;;;;;;5048949;28;4860;-70
2023/09/04 10:14:59;;;;;;;;;;;;;;;;;;5039257;28;4439;-70
2023/09/04 10:17:30;;;;;;;;;;;;;;;;;;5043902;28;5157;-69
2023/09/04 10:19:55;;;;;;;;;;;;;;;;;;5037752;28;3390;-69
2023/09/04 10:22:31;;;;;;;;;;;;;;;;;;5038092;28;5271;-72
2023/09/04 10:25:09;;;;;;;;;;;;;;;;;;5055262;28;4508;-70
2023/09/04 10:27:35;;;;;;;;;;;;;;;;;;5061667;28;4480;-68
2023/09/04 10:30:03;;;;;;;;;;;;;;;;;;5039097;28;5082;-68
2023/09/04 10:32:28;;;;;;;;;;;;;;;;;;5062339;28;4853;-65
2023/09/04 10:34:53;;;;;;;;;;;;;;;;;;5062637;28;2143;-64
2023/09/04 10:37:18;;;;;;;;;;;;;;;;;;5040757;28;4797;-65
2023/09/04 10:39:44;;;;;;;;;;;;;;;;;;5058463;28;5029;-64
2023/09/04 10:42:09;;;;;;;;;;;;;;;;;;5065540;28;5023;-67
2023/09/04 10:44:45;;;;;;;;;;;;;;;;;;5047467;28;4912;-67
2023/09/04 10:47:11;;;;;;;;;;;;;;;;;;5059149;28;4550;-68
2023/09/04 10:49:36;;;;;;;;;;;;;;;;;;5038192;28;3206;-68
2023/09/04 10:52:01;;;;;;;;;;;;;;;;;;5047354;28;4443;-67
2023/09/04 10:54:27;;;;;;;;;;;;;;;;;;5054639;28;4469;-67
2023/09/04 10:56:56;;;;;;;;;;;;;;;;;;5069421;28;5052;-69
2023/09/04 10:59:22;;;;;;;;;;;;;;;;;;5074037;28;4960;-68
2023/09/04 11:01:47;;;;;;;;;;;;;;;;;;5086174;28;3234;-66
2023/09/04 11:04:25;;;;;;;;;;;;;;;;;;5074352;28;5142;-66
2023/09/04 11:07:10;;;;;;;;;;;;;;;;;;5081484;28;5320;-65
2023/09/04 11:09:35;;;;;;;;;;;;;;;;;;5067189;28;5047;-65
2023/09/04 11:12:01;;;;;;;;;;;;;;;;;;5063976;28;4960;-65
2023/09/04 11:14:32;;;;;;;;;;;;;;;;;;5061711;28;5045;-66
2023/09/04 11:16:57;;;;;;;;;;;;;;;;;;5068957;28;1183;-65
2023/09/04 11:19:22;;;;;;;;;;;;;;;;;;5050931;28;5211;-64
2023/09/04 11:21:48;;;;;;;;;;;;;;;;;;5061154;28;5173;-65
2023/09/04 11:24:14;;;;;;;;;;;;;;;;;;5060319;28;5050;-65
2023/09/04 11:26:39;;;;;;;;;;;;;;;;;;5055297;28;5239;-65
2023/09/04 11:29:07;;;;;;;;;;;;;;;;;;5064176;28;3259;-66
2023/09/04 11:31:33;;;;;;;;;;;;;;;;;;5062565;28;4937;-68
2023/09/04 11:33:58;;;;;;;;;;;;;;;;;;5064173;28;4444;-67
2023/09/04 11:36:23;;;;;;;;;;;;;;;;;;5062492;28;4542;-67
2023/09/04 11:39:15;;;;;;;;;;;;;;;;;;5058038;28;4682;-65
2023/09/04 11:41:40;;;;;;;;;;;;;;;;;;5060784;28;4653;-66
2023/09/04 11:44:06;;;;;;;;;;;;;;;;;;5063199;28;3300;-66
2023/09/04 11:46:31;;;;;;;;;;;;;;;;;;5063520;28;4913;-67
2023/09/04 11:48:56;;;;;;;;;;;;;;;;;;5058382;28;4483;-67
2023/09/04 11:51:22;;;;;;;;;;;;;;;;;;5058905;28;5166;-67
2023/09/04 11:53:48;;;;;;;;;;;;;;;;;;5063408;28;5075;-65
2023/09/04 11:56:13;;;;;;;;;;;;;;;;;;5082567;28;4661;-66
2023/09/04 11:58:38;;;;;;;;;;;;;;;;;;5067798;28;3446;-65
2023/09/04 12:01:04;;;;;;;;;;;;;;;;;;5084618;28;5126;-66
2023/09/04 12:03:29;;;;;;;;;;;;;;;;;;5079070;28;5052;-66
2023/09/04 12:05:55;;;;;;;;;;;;;;;;;;5066937;28;4531;-67
2023/09/04 12:08:20;;;;;;;;;;;;;;;;;;5100575;27;5187;-67
2023/09/04 12:10:45;;;;;;;;;;;;;;;;;;5083233;28;3357;-67
2023/09/04 12:13:11;;;;;;;;;;;;;;;;;;5066231;28;5038;-67
2023/09/04 12:15:38;;;;;;;;;;;;;;;;;;5082929;28;4717;-67
2023/09/04 12:18:03;;;;;;;;;;;;;;;;;;5082206;28;5136;-61
2023/09/04 12:20:35;;;;;;;;;;;;;;;;;;5083932;28;5131;-62
2023/09/04 12:23:00;;;;;;;;;;;;;;;;;;5093333;28;2503;-62
2023/09/04 12:25:26;;;;;;;;;;;;;;;;;;5087227;28;5048;-62
2023/09/04 12:27:52;;;;;;;;;;;;;;;;;;5086877;28;4618;-62
2023/09/04 12:30:17;;;;;;;;;;;;;;;;;;5085538;28;5118;-62
2023/09/04 12:32:42;;;;;;;;;;;;;;;;;;5078598;28;4869;-62
2023/09/04 12:35:08;;;;;;;;;;;;;;;;;;5074582;28;2017;-62
2023/09/04 12:37:33;;;;;;;;;;;;;;;;;;5092702;28;4429;-62
2023/09/04 12:39:58;;;;;;;;;;;;;;;;;;5077860;28;5074;-62
2023/09/04 12:42:24;;;;;;;;;;;;;;;;;;5068470;28;5048;-62
2023/09/04 12:44:49;;;;;;;;;;;;;;;;;;5071816;28;5134;-62
2023/09/04 12:47:14;;;;;;;;;;;;;;;;;;5077095;28;5101;-61
2023/09/04 12:49:39;;;;;;;;;;;;;;;;;;5071217;28;1379;-62
2023/09/04 12:52:05;;;;;;;;;;;;;;;;;;5077298;28;4562;-62
2023/09/04 12:54:30;;;;;;;;;;;;;;;;;;5077370;28;4669;-62
2023/09/04 12:56:55;;;;;;;;;;;;;;;;;;5073709;28;5090;-62
2023/09/04 12:59:21;;;;;;;;;;;;;;;;;;5071985;28;5072;-62
2023/09/04 13:01:46;;;;;;;;;;;;;;;;;;5073168;28;1218;-62
2023/09/04 13:04:11;;;;;;;;;;;;;;;;;;5073575;28;5179;-61
2023/09/04 13:06:36;;;;;;;;;;;;;;;;;;5070565;28;4960;-62
2023/09/04 13:09:02;;;;;;;;;;;;;;;;;;5083985;28;5102;-62
2023/09/04 13:11:28;;;;;;;;;;;;;;;;;;5083595;28;4974;-72
2023/09/04 13:13:53;;;;;;;;;;;;;;;;;;5069123;28;1961;-63
2023/09/04 13:16:18;;;;;;;;;;;;;;;;;;5079826;28;5185;-69
2023/09/04 13:18:44;;;;;;;;;;;;;;;;;;5083040;28;5057;-68
2023/09/04 13:21:10;;;;;;;;;;;;;;;;;;5082686;28;4987;-68
2023/09/04 13:23:36;;;;;;;;;;;;;;;;;;5086125;28;4859;-67
2023/09/04 13:26:01;;;;;;;;;;;;;;;;;;5068015;28;1963;-69
2023/09/04 13:28:26;;;;;;;;;;;;;;;;;;5083814;28;5260;-68
2023/09/04 13:30:51;;;;;;;;;;;;;;;;;;5084261;28;4919;-69
2023/09/04 13:33:17;;;;;;;;;;;;;;;;;;5080994;28;5172;-68
2023/09/04 13:35:42;;;;;;;;;;;;;;;;;;5068587;28;6069;-68
2023/09/04 13:38:08;;;;;;;;;;;;;;;;;;5079300;28;1129;-68
2023/09/04 13:40:36;;;;;;;;;;;;;;;;;;5086914;28;4974;-68
2023/09/04 13:43:01;;;;;;;;;;;;;;;;;;5087587;28;5141;-68
2023/09/04 13:45:26;;;;;;;;;;;;;;;;;;5086587;28;5052;-68
2023/09/04 13:47:52;;;;;;;;;;;;;;;;;;5084690;28;4814;-69
2023/09/04 13:50:17;;;;;;;;;;;;;;;;;;5086935;28;5141;-68
2023/09/04 13:52:42;;;;;;;;;;;;;;;;;;5087544;28;1145;-68
2023/09/04 13:55:08;;;;;;;;;;;;;;;;;;5086896;28;4994;-68
2023/09/04 13:57:33;;;;;;;;;;;;;;;;;;5084579;28;5032;-68
2023/09/04 13:59:59;;;;;;;;;;;;;;;;;;5086726;28;4632;-68
2023/09/04 14:02:24;;;;;;;;;;;;;;;;;;5086707;28;5023;-68
2023/09/04 14:04:49;;;;;;;;;;;;;;;;;;5078120;28;1400;-67
2023/09/04 14:07:14;;;;;;;;;;;;;;;;;;5083842;28;4456;-68
2023/09/04 14:09:40;;;;;;;;;;;;;;;;;;5096663;28;5073;-68
2023/09/04 14:12:05;;;;;;;;;;;;;;;;;;5076985;28;5311;-68
2023/09/04 14:14:30;;;;;;;;;;;;;;;;;;5083665;28;4881;-68
2023/09/04 14:16:56;;;;;;;;;;;;;;;;;;5088184;28;3498;-69
2023/09/04 14:19:21;;;;;;;;;;;;;;;;;;5078331;28;4986;-67
2023/09/04 14:21:46;;;;;;;;;;;;;;;;;;5083252;28;4475;-68
2023/09/04 14:24:16;;;;;;;;;;;;;;;;;;5082467;28;4490;-68
2023/09/04 14:26:41;;;;;;;;;;;;;;;;;;5080909;28;4938;-68
2023/09/04 14:29:07;;;;;;;;;;;;;;;;;;5084804;28;3736;-68
2023/09/04 14:31:32;;;;;;;;;;;;;;;;;;5085130;28;4941;-68
2023/09/04 14:33:57;;;;;;;;;;;;;;;;;;5087848;28;5213;-69
2023/09/04 14:36:23;;;;;;;;;;;;;;;;;;5067531;28;5270;-68
2023/09/04 14:38:48;;;;;;;;;;;;;;;;;;5083908;28;5189;-67
2023/09/04 14:41:25;;;;;;;;;;;;;;;;;;5088128;28;5033;-66
2023/09/04 14:43:51;;;;;;;;;;;;;;;;;;5099332;28;3206;-68
2023/09/04 14:46:21;;;;;;;;;;;;;;;;;;5079655;28;4880;-65
2023/09/04 14:48:47;;;;;;;;;;;;;;;;;;5083867;28;5155;-63
2023/09/04 14:51:12;;;;;;;;;;;;;;;;;;5084268;28;5118;-64
2023/09/04 14:53:37;;;;;;;;;;;;;;;;;;5082232;28;5158;-65
2023/09/04 14:56:02;;;;;;;;;;;;;;;;;;5087465;28;3211;-65
2023/09/04 14:58:28;;;;;;;;;;;;;;;;;;5076032;28;5081;-64
2023/09/04 15:00:53;;;;;;;;;;;;;;;;;;5069737;28;5203;-68
2023/09/04 15:03:19;;;;;;;;;;;;;;;;;;5064167;28;5118;-67
2023/09/04 15:05:44;;;;;;;;;;;;;;;;;;5083555;28;4598;-65
2023/09/04 15:08:10;;;;;;;;;;;;;;;;;;5091317;28;3358;-63
2023/09/04 15:10:35;;;;;;;;;;;;;;;;;;5089108;28;4580;-63
2023/09/04 15:13:00;;;;;;;;;;;;;;;;;;5069258;28;4887;-66
2023/09/04 15:15:27;;;;;;;;;;;;;;;;;;5091130;28;5109;-65
2023/09/04 15:17:52;;;;;;;;;;;;;;;;;;5094720;28;5098;-68
2023/09/04 15:20:18;;;;;;;;;;;;;;;;;;5094569;28;4983;-64
2023/09/04 15:22:43;;;;;;;;;;;;;;;;;;5090974;28;3270;-70
2023/09/04 15:25:08;;;;;;;;;;;;;;;;;;5086997;28;4921;-68
2023/09/04 15:27:33;;;;;;;;;;;;;;;;;;5089464;28;4925;-67
2023/09/04 15:30:00;;;;;;;;;;;;;;;;;;5092672;28;5092;-64
2023/09/04 15:32:25;;;;;;;;;;;;;;;;;;5079976;28;5165;-65
2023/09/04 15:34:51;;;;;;;;;;;;;;;;;;5093102;28;3390;-62
2023/09/04 15:37:16;;;;;;;;;;;;;;;;;;5085383;28;4579;-60
2023/09/04 15:39:41;;;;;;;;;;;;;;;;;;5093492;28;4957;-59
2023/09/04 15:42:07;;;;;;;;;;;;;;;;;;5096312;28;4663;-60
2023/09/04 15:44:34;;;;;;;;;;;;;;;;;;5080481;28;4897;-62
2023/09/04 15:46:59;;;;;;;;;;;;;;;;;;5092544;28;3266;-58
2023/09/04 15:49:25;;;;;;;;;;;;;;;;;;5091758;28;5008;-60
2023/09/04 15:51:50;;;;;;;;;;;;;;;;;;5096097;28;4560;-59
2023/09/04 15:54:15;;;;;;;;;;;;;;;;;;5097612;28;5065;-65
2023/09/04 15:56:40;;;;;;;;;;;;;;;;;;5089493;28;5111;-59
2023/09/04 15:59:07;;;;;;;;;;;;;;;;;;5071959;28;3354;-59
2023/09/04 16:01:33;;;;;;;;;;;;;;;;;;5092540;28;4812;-61
2023/09/04 16:03:58;;;;;;;;;;;;;;;;;;5083579;28;4981;-59
2023/09/04 16:06:23;;;;;;;;;;;;;;;;;;5068742;28;4576;-60
2023/09/04 16:08:49;;;;;;;;;;;;;;;;;;5096881;28;5102;-60
2023/09/04 16:11:14;;;;;;;;;;;;;;;;;;5081318;28;5013;-61
2023/09/04 16:13:39;;;;;;;;;;;;;;;;;;5074400;28;1569;-63
2023/09/04 16:16:04;;;;;;;;;;;;;;;;;;5085412;28;5073;-61
2023/09/04 16:18:30;;;;;;;;;;;;;;;;;;5087759;28;4954;-60
2023/09/04 16:20:55;;;;;;;;;;;;;;;;;;5082528;28;4650;-59
2023/09/04 16:23:22;;;;;;;;;;;;;;;;;;5078445;28;5200;-59
2023/09/04 16:25:49;;;;;;;;;;;;;;;;;;5082379;28;3338;-65
2023/09/04 16:28:19;;;;;;;;;;;;;;;;;;5079390;28;4962;-61
2023/09/04 16:30:45;;;;;;;;;;;;;;;;;;5084773;28;5233;-64
2023/09/04 16:33:11;;;;;;;;;;;;;;;;;;5084662;28;5044;-62
2023/09/04 16:35:37;;;;;;;;;;;;;;;;;;5085009;28;4540;-60
2023/09/04 16:38:03;;;;;;;;;;;;;;;;;;5088881;28;3266;-58
2023/09/04 16:40:28;;;;;;;;;;;;;;;;;;5080496;28;5084;-61
2023/09/04 16:42:54;;;;;;;;;;;;;;;;;;5081525;28;6253;-60
2023/09/04 16:45:19;;;;;;;;;;;;;;;;;;5085656;28;5080;-61
2023/09/04 16:47:44;;;;;;;;;;;;;;;;;;5085492;28;4733;-61
2023/09/04 16:50:09;;;;;;;;;;;;;;;;;;5084346;28;3283;-61
2023/09/04 16:52:35;;;;;;;;;;;;;;;;;;5084420;28;4914;-61
2023/09/04 16:55:00;;;;;;;;;;;;;;;;;;5084698;28;4448;-63